createdAt,value
2022-07-28T00:01:30.512Z,41.20
2022-07-28T00:04:02.461Z,43.80
2022-07-28T00:06:33.488Z,44.00
2022-07-28T00:09:04.343Z,39.00
2022-07-28T00:11:36.267Z,43.00
2022-07-28T00:14:08.205Z,39.60
2022-07-28T00:16:38.675Z,41.00
2022-07-28T00:19:09.068Z,26.00
2022-07-28T00:21:40.235Z,42.00
2022-07-28T00:24:11.434Z,36.40
2022-07-28T00:26:41.982Z,42.25
2022-07-28T00:29:12.325Z,28.80
2022-07-28T00:31:43.375Z,44.00
2022-07-28T00:34:14.654Z,42.25
2022-07-28T00:36:45.352Z,41.75
2022-07-28T00:39:17.305Z,39.50
2022-07-28T00:41:51.610Z,43.75
2022-07-28T00:44:23.165Z,40.75
2022-07-28T00:46:53.552Z,43.25
2022-07-28T00:49:24.024Z,46.75
2022-07-28T00:51:54.595Z,45.00
2022-07-28T00:54:24.994Z,37.75
2022-07-28T00:56:55.713Z,44.50
2022-07-28T00:59:28.248Z,46.75
2022-07-28T01:02:02.100Z,46.75
2022-07-28T01:04:35.295Z,42.25
2022-07-28T01:07:20.857Z,40.75
2022-07-28T01:10:12.200Z,41.25
2022-07-28T01:13:11.348Z,24.50
2022-07-28T01:15:54.839Z,37.40
2022-07-28T01:18:55.733Z,44.00
2022-07-28T01:21:32.120Z,31.00
2022-07-28T01:24:31.938Z,40.75
2022-07-28T01:27:08.448Z,42.50
2022-07-28T01:32:50.398Z,42.00
2022-07-28T01:35:27.369Z,41.50
2022-07-28T01:38:01.297Z,42.25
2022-07-28T01:40:34.186Z,40.75
2022-07-28T01:43:08.421Z,39.60
2022-07-28T01:45:41.029Z,40.50
2022-07-28T01:48:13.800Z,43.25
2022-07-28T01:50:53.470Z,44.50
2022-07-28T01:53:26.131Z,41.75
2022-07-28T01:55:58.346Z,41.50
2022-07-28T01:58:30.654Z,39.00
2022-07-28T02:01:03.384Z,38.50
2022-07-28T02:03:37.517Z,41.00
2022-07-28T02:06:09.032Z,39.20
2022-07-28T02:08:41.750Z,41.00
2022-07-28T02:11:12.652Z,37.60
2022-07-28T02:13:44.646Z,38.00
2022-07-28T02:16:18.137Z,38.60
2022-07-28T02:18:53.747Z,36.80
2022-07-28T02:21:27.721Z,36.00
2022-07-28T02:24:00.126Z,34.40
2022-07-28T02:26:33.414Z,38.00
2022-07-28T02:29:07.482Z,34.00
2022-07-28T02:31:44.012Z,38.00
2022-07-28T02:34:16.812Z,35.20
2022-07-28T02:37:00.466Z,34.60
2022-07-28T02:39:41.072Z,38.80
2022-07-28T02:42:17.831Z,39.75
2022-07-28T02:47:54.992Z,33.20
2022-07-28T02:50:28.324Z,33.20
2022-07-28T02:53:01.602Z,32.20
2022-07-28T02:55:35.287Z,32.00
2022-07-28T02:58:06.660Z,31.80
2022-07-28T03:00:39.036Z,37.00
2022-07-28T03:03:10.052Z,30.80
2022-07-28T03:05:41.990Z,37.40
2022-07-28T03:08:13.213Z,38.40
2022-07-28T03:10:44.364Z,32.80
2022-07-28T03:13:15.454Z,38.00
2022-07-28T03:15:49.568Z,36.40
2022-07-28T03:18:19.917Z,35.80
2022-07-28T03:20:51.342Z,37.60
2022-07-28T03:23:27.552Z,37.80
2022-07-28T03:26:00.982Z,36.60
2022-07-28T03:28:33.062Z,34.40
2022-07-28T03:31:23.850Z,37.60
2022-07-28T03:34:00.495Z,32.80
2022-07-28T03:36:40.315Z,39.00
2022-07-28T03:39:13.844Z,35.60
2022-07-28T03:45:00.397Z,36.40
2022-07-28T03:47:24.986Z,37.80
2022-07-28T03:49:55.797Z,35.80
2022-07-28T03:52:26.217Z,40.60
2022-07-28T03:54:57.838Z,38.60
2022-07-28T03:57:28.301Z,39.00
2022-07-28T04:00:06.109Z,42.20
2022-07-28T04:02:38.609Z,44.20
2022-07-28T04:05:12.266Z,42.60
2022-07-28T04:07:45.079Z,46.40
2022-07-28T04:10:17.404Z,48.60
2022-07-28T04:12:55.642Z,44.60
2022-07-28T04:15:28.574Z,44.00
2022-07-28T04:17:59.740Z,42.40
2022-07-28T04:20:30.323Z,44.40
2022-07-28T04:23:00.996Z,46.60
2022-07-28T04:25:37.853Z,42.00
2022-07-28T04:28:10.144Z,46.80
2022-07-28T04:30:43.859Z,45.00
2022-07-28T04:33:13.458Z,42.80
2022-07-28T04:35:48.188Z,43.80
2022-07-28T04:38:19.193Z,51.80
2022-07-28T04:40:49.796Z,44.80
2022-07-28T04:43:22.937Z,45.40
2022-07-28T04:45:53.335Z,44.20
2022-07-28T04:48:25.184Z,43.40
2022-07-28T04:50:56.188Z,37.40
2022-07-28T04:53:26.514Z,41.00
2022-07-28T04:55:56.920Z,43.40
2022-07-28T04:58:28.108Z,47.20
2022-07-28T05:01:00.330Z,44.80
2022-07-28T05:03:36.027Z,45.80
2022-07-28T05:06:03.582Z,68.50
2022-07-28T05:08:35.868Z,49.20
2022-07-28T05:11:08.097Z,49.60
2022-07-28T05:13:38.729Z,48.00
2022-07-28T05:16:09.570Z,45.40
2022-07-28T05:18:40.463Z,48.00
2022-07-28T05:21:11.547Z,49.80
2022-07-28T05:23:47.497Z,52.40
2022-07-28T05:26:16.634Z,48.60
2022-07-28T05:28:47.814Z,53.60
2022-07-28T05:31:18.228Z,46.20
2022-07-28T05:33:48.817Z,38.40
2022-07-28T05:36:26.234Z,37.20
2022-07-28T05:38:56.801Z,30.80
2022-07-28T05:41:28.978Z,28.00
2022-07-28T05:43:59.577Z,38.00
2022-07-28T05:46:30.207Z,26.40
2022-07-28T05:49:02.017Z,25.80
2022-07-28T05:51:41.228Z,34.00
2022-07-28T05:54:07.546Z,20.80
2022-07-28T05:56:38.254Z,23.40
2022-07-28T05:59:08.670Z,24.40
2022-07-28T06:01:40.604Z,17.40
2022-07-28T06:04:26.493Z,22.00
2022-07-28T06:06:43.486Z,22.60
2022-07-28T06:09:14.063Z,24.40
2022-07-28T06:11:45.298Z,21.40
2022-07-28T06:14:16.183Z,19.20
2022-07-28T06:16:48.353Z,22.00
2022-07-28T06:19:19.693Z,17.20
2022-07-28T06:21:51.645Z,18.40
2022-07-28T06:24:22.600Z,15.80
2022-07-28T06:30:10.904Z,21.80
2022-07-28T06:32:42.747Z,19.80
2022-07-28T06:35:14.936Z,22.00
2022-07-28T06:37:47.100Z,16.00
2022-07-28T06:40:19.548Z,19.40
2022-07-28T06:42:50.306Z,16.80
2022-07-28T06:45:21.829Z,16.40
2022-07-28T06:47:53.652Z,14.20
2022-07-28T06:50:25.077Z,17.80
2022-07-28T06:52:59.027Z,14.40
2022-07-28T06:55:34.455Z,17.80
2022-07-28T06:58:02.032Z,17.40
2022-07-28T07:00:32.916Z,16.20
2022-07-28T07:03:04.456Z,19.60
2022-07-28T07:05:35.502Z,20.80
2022-07-28T07:08:10.170Z,18.20
2022-07-28T07:10:41.727Z,17.80
2022-07-28T07:13:16.367Z,21.00
2022-07-28T07:15:48.071Z,16.60
2022-07-28T07:18:18.980Z,15.60
2022-07-28T07:20:49.485Z,14.80
2022-07-28T07:23:20.208Z,14.60
2022-07-28T07:25:53.703Z,18.40
2022-07-28T07:28:24.230Z,16.60
2022-07-28T07:30:54.981Z,19.60
2022-07-28T07:33:25.462Z,17.20
2022-07-28T07:35:56.189Z,18.80
2022-07-28T07:38:29.261Z,17.40
2022-07-28T07:41:00.254Z,16.80
2022-07-28T07:43:52.057Z,16.20
2022-07-28T07:46:24.722Z,17.40
2022-07-28T07:52:14.759Z,16.20
2022-07-28T07:54:46.928Z,20.00
2022-07-28T07:57:20.747Z,17.60
2022-07-28T07:59:59.096Z,18.80
2022-07-28T08:02:30.677Z,20.00
2022-07-28T08:05:06.478Z,15.80
2022-07-28T08:07:49.951Z,17.40
2022-07-28T08:10:20.859Z,16.80
2022-07-28T08:12:52.399Z,14.40
2022-07-28T08:15:24.316Z,12.20
2022-07-28T08:17:58.396Z,15.80
2022-07-28T08:20:37.793Z,15.00
2022-07-28T08:23:13.304Z,14.60
2022-07-28T08:25:46.301Z,12.40
2022-07-28T08:28:19.408Z,15.40
2022-07-28T08:30:50.293Z,12.60
2022-07-28T08:33:20.755Z,15.60
2022-07-28T08:35:51.142Z,11.80
2022-07-28T08:38:21.541Z,10.20
2022-07-28T08:40:54.317Z,13.00
2022-07-28T08:43:33.259Z,15.60
2022-07-28T08:46:05.467Z,15.60
2022-07-28T08:48:38.514Z,13.20
2022-07-28T08:51:11.175Z,15.00
2022-07-28T08:53:43.123Z,11.20
2022-07-28T08:56:19.032Z,12.40
2022-07-28T08:58:52.056Z,12.40
2022-07-28T09:01:38.803Z,12.00
2022-07-28T09:04:05.502Z,9.20
2022-07-28T09:06:38.056Z,13.40
2022-07-28T09:09:09.941Z,10.00
2022-07-28T09:11:40.483Z,12.20
2022-07-28T09:14:12.561Z,12.60
2022-07-28T09:16:44.755Z,12.60
2022-07-28T09:19:15.698Z,9.20
2022-07-28T09:21:47.473Z,9.40
2022-07-28T09:24:41.071Z,11.60
2022-07-28T09:27:13.867Z,11.60
2022-07-28T09:29:51.198Z,13.00
2022-07-28T09:32:22.181Z,11.00
2022-07-28T09:34:52.647Z,14.00
2022-07-28T09:37:28.215Z,14.20
2022-07-28T09:40:13.166Z,12.00
2022-07-28T09:42:49.039Z,11.60
2022-07-28T09:45:24.095Z,13.20
2022-07-28T09:48:14.557Z,9.40
2022-07-28T09:50:45.233Z,11.00
2022-07-28T09:53:27.270Z,12.20
2022-07-28T09:56:00.811Z,11.40
2022-07-28T09:58:41.089Z,11.00
2022-07-28T10:01:17.479Z,11.60
2022-07-28T10:03:53.869Z,13.20
2022-07-28T10:06:33.082Z,12.80
2022-07-28T10:09:05.221Z,9.80
2022-07-28T10:11:41.367Z,12.00
2022-07-28T10:14:08.179Z,11.20
2022-07-28T10:17:06.304Z,11.00
2022-07-28T10:19:38.134Z,12.80
2022-07-28T10:22:08.907Z,11.00
2022-07-28T10:24:40.298Z,11.80
2022-07-28T10:27:13.943Z,12.20
2022-07-28T10:29:46.490Z,14.40
2022-07-28T10:32:17.039Z,13.20
2022-07-28T10:34:53.146Z,13.40
2022-07-28T10:37:26.043Z,12.00
2022-07-28T10:40:09.802Z,11.00
2022-07-28T10:42:38.990Z,11.80
2022-07-28T10:45:17.329Z,13.60
2022-07-28T10:47:53.949Z,13.60
2022-07-28T10:50:28.839Z,16.00
2022-07-28T10:53:03.760Z,13.60
2022-07-28T10:55:51.295Z,13.60
2022-07-28T10:58:31.285Z,12.00
2022-07-28T11:01:05.870Z,12.60
2022-07-28T11:03:45.406Z,15.40
2022-07-28T11:06:35.696Z,16.20
2022-07-28T11:09:21.845Z,12.40
2022-07-28T11:11:56.555Z,13.40
2022-07-28T11:14:42.074Z,8.40
2022-07-28T11:20:53.195Z,9.60
2022-07-28T11:23:48.605Z,13.60
2022-07-28T11:26:24.621Z,13.40
2022-07-28T11:29:07.081Z,12.60
2022-07-28T11:31:53.910Z,8.20
2022-07-28T11:34:32.017Z,12.00
2022-07-28T11:37:05.813Z,16.40
2022-07-28T11:39:43.286Z,17.20
2022-07-28T11:42:49.098Z,18.40
2022-07-28T11:45:48.788Z,18.60
2022-07-28T11:48:16.189Z,16.40
2022-07-28T11:51:09.014Z,20.40
2022-07-28T11:53:42.854Z,16.40
2022-07-28T11:56:15.958Z,17.80
2022-07-28T11:58:49.416Z,18.20
2022-07-28T12:01:22.176Z,15.80
2022-07-28T12:03:56.160Z,19.40
2022-07-28T12:06:38.088Z,18.60
2022-07-28T12:09:10.432Z,16.20
2022-07-28T12:11:43.554Z,19.60
2022-07-28T12:14:17.594Z,18.40
2022-07-28T12:16:52.432Z,15.80
2022-07-28T12:19:32.784Z,17.60
2022-07-28T12:21:58.171Z,18.80
2022-07-28T12:24:31.300Z,13.00
2022-07-28T12:27:03.179Z,13.20
2022-07-28T12:29:37.285Z,14.80
2022-07-28T12:32:11.994Z,16.20
2022-07-28T12:34:43.041Z,14.80
2022-07-28T12:37:14.553Z,16.60
2022-07-28T12:39:50.266Z,13.20
2022-07-28T12:42:21.758Z,15.80
2022-07-28T12:44:52.276Z,14.40
2022-07-28T12:47:28.075Z,13.20
2022-07-28T12:50:16.676Z,13.80
2022-07-28T12:53:07.407Z,14.60
2022-07-28T12:55:39.259Z,13.20
2022-07-28T12:58:26.476Z,12.60
2022-07-28T13:00:57.543Z,13.60
2022-07-28T13:03:29.775Z,13.40
2022-07-28T13:06:03.139Z,13.00
2022-07-28T13:08:47.790Z,14.20
2022-07-28T13:11:46.143Z,14.00
2022-07-28T13:14:13.806Z,16.60
2022-07-28T13:16:47.608Z,14.80
2022-07-28T13:19:24.109Z,15.80
2022-07-28T13:21:56.531Z,16.40
2022-07-28T13:24:29.280Z,15.20
2022-07-28T13:27:01.784Z,17.00
2022-07-28T13:29:36.086Z,12.20
2022-07-28T13:32:07.045Z,17.00
2022-07-28T13:34:37.784Z,15.20
2022-07-28T13:37:11.102Z,14.20
2022-07-28T13:39:42.567Z,14.00
2022-07-28T13:42:13.353Z,10.60
2022-07-28T13:45:17.151Z,17.20
2022-07-28T13:47:35.696Z,16.20
2022-07-28T13:50:07.019Z,14.00
2022-07-28T13:52:41.254Z,11.60
2022-07-28T13:55:16.067Z,11.40
2022-07-28T13:57:50.126Z,15.20
2022-07-28T14:00:22.697Z,15.00
2022-07-28T14:02:54.977Z,12.20
2022-07-28T14:05:32.253Z,16.80
2022-07-28T14:08:12.631Z,14.20
2022-07-28T14:10:43.240Z,13.80
2022-07-28T14:13:18.456Z,16.00
2022-07-28T14:18:51.144Z,16.60
2022-07-28T14:21:25.850Z,15.20
2022-07-28T14:23:56.740Z,13.80
2022-07-28T14:26:36.066Z,15.20
2022-07-28T14:29:00.145Z,14.20
2022-07-28T14:40:59.920Z,16.40
2022-07-28T14:43:31.633Z,18.00
2022-07-28T14:46:15.097Z,18.60
2022-07-28T14:48:41.177Z,17.20
2022-07-28T14:51:17.466Z,16.80
2022-07-28T14:53:53.572Z,16.40
2022-07-28T14:56:27.771Z,13.60
2022-07-28T15:03:11.852Z,13.80
2022-07-28T15:05:20.498Z,15.80
2022-07-28T15:07:55.027Z,19.20
2022-07-28T15:10:25.983Z,16.20
2022-07-28T15:13:00.782Z,17.60
2022-07-28T15:15:34.343Z,18.40
2022-07-28T15:18:04.658Z,19.00
2022-07-28T15:20:37.105Z,15.00
2022-07-28T15:23:08.885Z,16.20
2022-07-28T15:25:41.050Z,16.40
2022-07-28T15:28:11.715Z,19.20
2022-07-28T15:30:51.920Z,15.00
2022-07-28T15:33:25.132Z,16.40
2022-07-28T15:36:01.644Z,15.80
2022-07-28T15:38:33.541Z,17.20
2022-07-28T15:41:04.720Z,18.80
2022-07-28T15:43:37.111Z,17.40
2022-07-28T15:46:09.307Z,18.40
2022-07-28T15:48:41.921Z,17.20
2022-07-28T15:51:13.561Z,18.00
2022-07-28T15:53:44.227Z,18.00
2022-07-28T15:56:16.166Z,15.40
2022-07-28T15:58:48.161Z,14.00
2022-07-28T16:01:21.875Z,15.00
2022-07-28T16:04:00.936Z,13.80
2022-07-28T16:06:32.396Z,14.80
2022-07-28T16:09:03.775Z,17.40
2022-07-28T16:11:37.432Z,20.20
2022-07-28T16:14:08.086Z,17.60
2022-07-28T16:16:48.306Z,16.80
2022-07-28T16:22:12.184Z,16.80
2022-07-28T16:24:45.504Z,16.00
2022-07-28T16:27:17.296Z,16.00
2022-07-28T16:29:49.393Z,16.80
2022-07-28T16:32:20.444Z,17.60
2022-07-28T16:34:51.552Z,17.00
2022-07-28T16:37:23.454Z,18.60
2022-07-28T16:39:54.499Z,16.80
2022-07-28T16:42:26.588Z,16.60
2022-07-28T16:44:57.327Z,18.80
2022-07-28T16:47:27.954Z,17.80
2022-07-28T16:50:01.571Z,17.00
2022-07-28T16:52:32.649Z,17.40
2022-07-28T16:55:03.475Z,17.80
2022-07-28T16:57:34.549Z,14.00
2022-07-28T17:00:07.459Z,16.00
2022-07-28T17:02:39.681Z,16.60
2022-07-28T17:05:14.110Z,16.20
2022-07-28T17:07:46.247Z,13.00
2022-07-28T17:10:27.187Z,16.00
2022-07-28T17:12:54.999Z,14.40
2022-07-28T17:15:29.154Z,14.60
2022-07-28T17:18:00.926Z,15.80
2022-07-28T17:20:32.620Z,13.20
2022-07-28T17:23:05.122Z,15.40
2022-07-28T17:28:10.563Z,18.20
2022-07-28T17:30:41.397Z,15.60
2022-07-28T17:33:12.147Z,12.80
2022-07-28T17:35:42.785Z,17.00
2022-07-28T17:38:14.855Z,15.00
2022-07-28T17:40:46.386Z,16.80
2022-07-28T17:43:17.791Z,14.00
2022-07-28T17:45:48.737Z,15.60
2022-07-28T17:48:19.986Z,11.80
2022-07-28T17:50:50.896Z,19.60
2022-07-28T17:53:22.822Z,18.20
2022-07-28T17:56:01.126Z,15.00
2022-07-28T17:58:29.911Z,13.80
2022-07-28T18:01:09.854Z,13.40
2022-07-28T18:03:57.934Z,15.40
2022-07-28T18:06:14.311Z,15.60
2022-07-28T18:08:47.043Z,15.40
2022-07-28T18:11:17.644Z,14.00
2022-07-28T18:14:04.280Z,15.40
2022-07-28T18:16:21.952Z,13.60
2022-07-28T18:18:52.640Z,14.20
2022-07-28T18:21:23.195Z,15.40
2022-07-28T18:23:54.858Z,15.60
2022-07-28T18:26:27.110Z,11.60
2022-07-28T18:28:58.054Z,14.80
2022-07-28T18:31:28.782Z,44.60
2022-07-28T18:34:01.156Z,12.20
2022-07-28T18:36:34.400Z,14.00
2022-07-28T18:39:04.980Z,15.60
2022-07-28T18:41:46.171Z,13.60
2022-07-28T18:44:18.279Z,13.60
2022-07-28T18:46:49.859Z,13.00
2022-07-28T18:49:20.499Z,15.00
2022-07-28T18:51:52.407Z,12.40
2022-07-28T18:54:26.254Z,16.20
2022-07-28T18:56:58.579Z,12.80
2022-07-28T18:59:29.090Z,11.00
2022-07-28T19:02:05.424Z,15.20
2022-07-28T19:04:39.792Z,12.80
2022-07-28T19:07:17.192Z,15.80
2022-07-28T19:09:53.593Z,17.80
2022-07-28T19:12:28.125Z,18.80
2022-07-28T19:15:03.848Z,20.00
2022-07-28T19:17:46.989Z,21.20
2022-07-28T19:20:23.621Z,21.00
2022-07-28T19:22:57.568Z,17.60
2022-07-28T19:25:29.018Z,17.60
2022-07-28T19:28:00.623Z,14.80
2022-07-28T19:30:31.534Z,14.80
2022-07-28T19:33:04.379Z,16.40
2022-07-28T19:35:35.019Z,13.00
2022-07-28T19:38:11.678Z,11.80
2022-07-28T19:40:45.976Z,11.40
2022-07-28T19:43:17.064Z,12.60
2022-07-28T19:45:48.036Z,9.00
2022-07-28T19:48:20.339Z,12.80
2022-07-28T19:50:52.253Z,11.20
2022-07-28T19:53:31.647Z,12.80
2022-07-28T19:55:57.830Z,11.80
2022-07-28T19:58:29.885Z,11.80
2022-07-28T20:01:04.044Z,8.20
2022-07-28T20:04:01.090Z,9.40
2022-07-28T20:06:07.156Z,11.20
2022-07-28T20:08:37.913Z,10.40
2022-07-28T20:11:15.100Z,12.60
2022-07-28T20:13:49.960Z,10.20
2022-07-28T20:16:22.980Z,11.00
2022-07-28T20:18:54.453Z,9.20
2022-07-28T20:21:27.707Z,12.20
2022-07-28T20:24:02.206Z,9.60
2022-07-28T20:26:32.895Z,11.00
2022-07-28T20:29:06.521Z,9.00
2022-07-28T20:31:37.220Z,10.40
2022-07-28T20:34:07.946Z,10.20
2022-07-28T20:36:40.621Z,8.80
2022-07-28T20:39:42.101Z,7.00
2022-07-28T20:41:43.552Z,7.40
2022-07-28T20:44:28.839Z,10.80
2022-07-28T20:46:52.855Z,8.60
2022-07-28T20:49:23.994Z,9.00
2022-07-28T20:51:59.277Z,9.40
2022-07-28T20:54:30.448Z,10.60
2022-07-28T20:57:02.818Z,9.00
2022-07-28T20:59:34.138Z,11.00
2022-07-28T21:02:04.702Z,10.00
2022-07-28T21:04:41.050Z,9.20
2022-07-28T21:07:15.021Z,10.80
2022-07-28T21:09:46.495Z,7.80
2022-07-28T21:12:20.724Z,9.60
2022-07-28T21:14:52.835Z,7.20
2022-07-28T21:17:46.065Z,9.60
2022-07-28T21:20:18.060Z,8.00
2022-07-28T21:22:48.683Z,8.00
2022-07-28T21:25:19.378Z,11.00
2022-07-28T21:27:49.796Z,8.00
2022-07-28T21:30:28.054Z,10.40
2022-07-28T21:32:55.407Z,8.00
2022-07-28T21:35:26.340Z,10.60
2022-07-28T21:37:58.993Z,10.60
2022-07-28T21:40:29.610Z,8.60
2022-07-28T21:43:00.135Z,9.20
2022-07-28T21:45:30.752Z,12.00
2022-07-28T21:48:01.826Z,8.20
2022-07-28T21:50:36.227Z,7.40
2022-07-28T21:53:06.631Z,10.60
2022-07-28T21:55:37.583Z,8.60
2022-07-28T21:58:07.857Z,16.20
2022-07-28T22:00:38.465Z,14.60
2022-07-28T22:03:09.331Z,15.20
2022-07-28T22:05:40.000Z,14.20
2022-07-28T22:08:11.437Z,14.40
2022-07-28T22:10:41.903Z,16.60
2022-07-28T22:13:12.979Z,17.00
2022-07-28T22:15:43.580Z,12.60
2022-07-28T22:18:16.774Z,16.80
2022-07-28T22:20:46.815Z,12.80
2022-07-28T22:23:29.069Z,10.00
2022-07-28T22:25:51.213Z,10.60
2022-07-28T22:28:30.177Z,12.20
2022-07-28T22:30:55.696Z,12.40
2022-07-28T22:33:26.823Z,12.00
2022-07-28T22:35:57.187Z,10.20
2022-07-28T22:38:27.978Z,14.00
2022-07-28T22:40:58.310Z,12.40
2022-07-28T22:43:28.694Z,11.00
2022-07-28T22:45:59.195Z,12.00
2022-07-28T22:48:29.579Z,7.40
2022-07-28T22:51:00.864Z,10.60
2022-07-28T22:53:31.309Z,10.20
2022-07-28T22:56:01.703Z,12.00
2022-07-28T22:58:32.535Z,12.40
2022-07-28T23:01:03.967Z,11.20
2022-07-28T23:03:35.903Z,10.40
2022-07-28T23:06:06.811Z,9.40
2022-07-28T23:08:37.197Z,9.60
2022-07-28T23:11:08.342Z,10.40
2022-07-28T23:13:40.034Z,9.00
2022-07-28T23:16:12.100Z,12.40
2022-07-28T23:18:43.529Z,11.60
2022-07-28T23:21:14.546Z,10.00
2022-07-28T23:23:45.149Z,9.00
2022-07-28T23:26:15.546Z,9.00
2022-07-28T23:28:45.776Z,9.00
2022-07-28T23:31:16.805Z,9.80
2022-07-28T23:33:55.235Z,9.60
2022-07-28T23:36:26.433Z,10.00
2022-07-28T23:38:51.909Z,8.40
2022-07-28T23:41:23.064Z,12.40
2022-07-28T23:43:53.855Z,12.80
2022-07-28T23:46:24.490Z,9.60
2022-07-28T23:48:55.143Z,12.80
2022-07-28T23:51:32.031Z,11.20
2022-07-28T23:53:57.921Z,12.80
2022-07-28T23:56:28.295Z,16.60
2022-07-28T23:58:58.598Z,10.80
